createdAt,value
2023-01-29T05:17:08.910Z,9.70
2023-01-29T05:18:09.595Z,10.30
2023-01-29T05:19:10.292Z,11.50
2023-01-29T05:20:09.684Z,11.20
2023-01-29T05:21:11.429Z,10.80
2023-01-29T05:22:09.582Z,11.60
2023-01-29T05:23:09.574Z,10.60
2023-01-29T05:24:09.584Z,11.00
2023-01-29T05:25:09.573Z,10.40
2023-01-29T05:26:09.549Z,10.40
2023-01-29T05:27:09.549Z,9.80
2023-01-29T05:28:09.521Z,10.40
2023-01-29T05:29:10.175Z,9.90
2023-01-29T09:52:59.173Z,1.90
2023-01-29T09:53:59.876Z,1.70
2023-01-29T09:54:59.894Z,1.80
2023-01-29T09:55:59.846Z,1.90
2023-01-29T09:56:59.842Z,2.00
2023-01-29T09:57:59.838Z,2.00
2023-01-29T09:59:01.552Z,1.80
2023-01-29T10:01:14.964Z,2.00
2023-01-29T10:02:14.107Z,1.80
2023-01-29T10:03:14.082Z,2.00
2023-01-29T10:04:14.978Z,2.00
2023-01-29T10:05:14.571Z,2.00
2023-01-29T10:06:16.153Z,2.00
2023-01-29T10:07:14.015Z,2.60
2023-01-29T10:08:13.969Z,2.40
2023-01-29T10:09:14.003Z,2.50
2023-01-29T10:10:13.965Z,2.20
2023-01-29T10:11:14.957Z,2.60
2023-01-29T10:12:13.905Z,2.30
2023-01-29T10:13:15.487Z,2.60
2023-01-29T10:14:14.884Z,2.20
2023-01-29T10:15:15.167Z,2.60
2023-01-29T10:16:16.061Z,1.90
2023-01-29T10:17:14.835Z,1.70
2023-01-29T10:18:13.873Z,1.70
2023-01-29T10:19:14.683Z,1.50
2023-01-29T11:06:38.651Z,1.40
2023-01-29T11:07:39.449Z,1.40
2023-01-29T11:08:40.655Z,1.50
2023-01-29T11:09:41.616Z,1.80
2023-01-29T11:10:39.365Z,1.50
2023-01-29T11:11:40.653Z,1.60
2023-01-29T11:12:39.336Z,1.50
2023-01-29T11:14:03.727Z,1.20
2023-01-29T11:14:39.320Z,1.30
2023-01-29T11:15:39.294Z,1.30
2023-01-29T11:20:49.147Z,1.30
2023-01-29T11:21:48.152Z,1.50
2023-01-29T11:22:48.798Z,1.50
2023-01-29T11:23:48.168Z,1.30
2023-01-29T11:24:48.122Z,1.10
2023-01-29T11:25:49.316Z,1.30
2023-01-29T11:26:48.100Z,1.10
2023-01-29T20:06:15.842Z,1.90
2023-01-29T20:07:16.653Z,1.80
2023-01-29T20:08:16.537Z,2.40
2023-01-29T20:09:18.422Z,2.40
2023-01-29T20:10:17.972Z,1.70
2023-01-29T20:11:16.566Z,1.80
2023-01-29T20:12:18.668Z,1.90
2023-01-29T20:13:16.500Z,1.80
2023-01-29T20:14:17.238Z,2.20
2023-01-29T20:15:17.282Z,1.90
2023-01-29T20:16:16.461Z,1.90
2023-01-29T20:17:16.532Z,1.90
2023-01-29T20:18:16.436Z,2.10
2023-01-29T20:19:16.439Z,2.70
2023-01-29T20:20:16.976Z,2.20
2023-01-29T20:21:16.433Z,2.10
2023-01-29T20:22:16.351Z,1.90
2023-01-29T20:23:31.850Z,2.10
2023-01-29T20:24:16.344Z,2.20
2023-01-29T20:25:16.963Z,2.20
2023-01-29T20:26:16.428Z,2.10
2023-01-29T20:27:19.146Z,1.30
2023-01-29T20:28:16.289Z,1.50
2023-01-29T20:29:16.345Z,2.10
2023-01-29T20:30:16.663Z,2.00
2023-01-29T20:31:16.349Z,2.40
2023-01-29T20:32:16.864Z,2.60
2023-01-29T20:33:17.161Z,1.60
2023-01-29T20:34:16.257Z,1.80
2023-01-29T20:35:16.761Z,1.60
2023-01-29T20:36:16.763Z,1.80
2023-01-29T20:37:16.216Z,1.90
2023-01-29T20:38:16.176Z,1.50
2023-01-29T20:39:16.208Z,1.50
2023-01-29T20:40:16.608Z,1.50
2023-01-29T20:41:16.215Z,1.60
2023-01-29T20:42:16.140Z,1.70
2023-01-29T20:43:16.805Z,2.80
2023-01-29T20:44:17.050Z,2.20
2023-01-29T20:45:17.283Z,3.50
2023-01-29T20:46:17.283Z,2.80
2023-01-29T20:47:16.098Z,2.00
2023-01-29T20:48:16.073Z,1.80
2023-01-29T20:49:16.771Z,1.70
2023-01-29T20:50:17.082Z,1.90
2023-01-29T20:51:16.102Z,1.60
2023-01-29T20:52:16.043Z,1.90
2023-01-29T20:53:16.041Z,1.50
2023-01-29T20:54:16.014Z,1.80
2023-01-29T20:55:16.023Z,1.50
2023-01-29T20:56:16.028Z,1.70
2023-01-29T20:57:18.474Z,1.50
2023-01-29T20:58:15.973Z,1.60
2023-01-29T20:59:16.632Z,1.40
2023-01-29T21:00:16.374Z,1.50
2023-01-29T21:01:16.045Z,1.40
2023-01-29T21:02:16.011Z,2.00
2023-01-29T21:03:15.972Z,1.90
2023-01-29T21:04:15.896Z,1.90
2023-01-29T21:05:15.916Z,1.80
2023-01-29T21:06:15.873Z,1.70
2023-01-29T21:07:15.894Z,1.80
2023-01-29T21:08:15.844Z,2.00
2023-01-29T21:09:15.866Z,2.00
2023-01-29T21:10:16.416Z,2.00
2023-01-29T21:11:15.823Z,1.80
2023-01-29T21:12:15.820Z,1.80
2023-01-29T21:13:15.866Z,1.40
2023-01-29T21:14:15.833Z,1.80
2023-01-29T21:15:15.772Z,1.60
2023-01-29T21:16:17.302Z,1.90
2023-01-29T21:17:15.749Z,1.60
2023-01-29T21:18:15.747Z,1.70
2023-01-29T21:19:15.751Z,1.80
2023-01-29T21:20:16.027Z,2.10
2023-01-29T21:21:15.696Z,1.90
2023-01-29T21:22:15.714Z,1.90
2023-01-29T21:23:15.672Z,2.00
2023-01-29T21:24:15.690Z,1.70
2023-01-29T21:25:15.665Z,1.90
2023-01-29T21:26:15.710Z,1.70
2023-01-29T21:27:15.634Z,2.10
2023-01-29T21:28:15.669Z,1.80
2023-01-29T21:29:15.600Z,1.70
2023-01-29T21:30:15.935Z,1.50
2023-01-29T21:31:15.586Z,1.70
2023-01-29T21:32:15.599Z,1.90
2023-01-29T21:33:15.645Z,1.60
2023-01-29T21:34:16.287Z,1.80
2023-01-29T21:35:16.335Z,1.80
2023-01-29T21:36:15.567Z,1.90
2023-01-29T21:37:15.530Z,1.60
2023-01-29T21:38:16.387Z,1.90
2023-01-29T21:39:16.359Z,2.10
2023-01-29T21:40:15.966Z,2.00
2023-01-29T21:41:15.485Z,2.10
2023-01-29T21:42:15.519Z,2.00
2023-01-29T21:43:15.555Z,2.00
2023-01-29T21:44:15.461Z,1.60
2023-01-29T21:45:15.449Z,2.00
2023-01-29T21:46:16.031Z,2.00
2023-01-29T21:47:16.132Z,1.70
2023-01-29T21:48:15.398Z,2.00
2023-01-29T21:49:15.391Z,1.70
2023-01-29T21:50:16.805Z,1.80
2023-01-29T21:51:17.275Z,1.90
2023-01-29T21:52:15.979Z,1.80
2023-01-29T21:53:15.325Z,2.10
2023-01-29T21:54:16.289Z,2.30
2023-01-29T21:55:23.467Z,2.00
2023-01-29T21:56:15.332Z,2.00
2023-01-29T21:57:15.298Z,2.10
2023-01-29T21:58:24.475Z,2.00
2023-01-29T21:59:24.159Z,2.30
2023-01-29T22:00:16.222Z,1.90
2023-01-29T22:01:36.475Z,2.60
2023-01-29T22:02:15.945Z,2.70
2023-01-29T22:03:15.215Z,2.30
2023-01-29T22:04:15.325Z,2.30
2023-01-29T22:05:19.308Z,2.50
2023-01-29T22:06:15.245Z,2.30
2023-01-29T22:07:16.972Z,2.60
2023-01-29T22:08:16.087Z,2.80
2023-01-29T22:09:15.157Z,2.40
2023-01-29T22:10:15.476Z,2.70
2023-01-29T22:11:15.109Z,2.20
2023-01-29T22:12:17.549Z,2.20
2023-01-29T22:13:15.151Z,2.10
2023-01-29T22:14:15.911Z,2.20
2023-01-29T22:15:15.091Z,2.40
2023-01-29T22:16:15.867Z,2.00
2023-01-29T22:17:15.076Z,2.20
2023-01-29T22:18:15.067Z,2.20
2023-01-29T22:19:15.049Z,2.40
2023-01-29T22:20:15.422Z,2.40
2023-01-29T22:21:15.034Z,2.20
2023-01-29T22:22:15.056Z,2.40
2023-01-29T22:23:15.048Z,3.10
2023-01-29T22:24:15.088Z,2.60
2023-01-29T22:25:16.892Z,2.40
2023-01-29T22:26:15.026Z,2.40
2023-01-29T22:27:17.744Z,2.30
2023-01-29T22:28:15.621Z,2.50
2023-01-29T22:29:17.361Z,2.10
2023-01-29T22:30:15.177Z,2.20
2023-01-29T22:31:14.914Z,2.50
2023-01-29T22:32:14.927Z,2.10
2023-01-29T22:33:15.852Z,2.20
2023-01-29T22:34:14.883Z,2.40
2023-01-29T22:35:14.904Z,2.30
2023-01-29T22:36:14.869Z,2.40
2023-01-29T22:37:14.824Z,2.60
2023-01-29T22:38:14.854Z,2.80
2023-01-29T22:39:15.548Z,3.00
2023-01-29T22:40:14.924Z,2.80
2023-01-29T22:41:14.803Z,2.70
2023-01-29T22:42:14.397Z,2.90
2023-01-29T22:43:14.748Z,2.90
2023-01-29T22:44:14.770Z,2.80
2023-01-29T22:45:14.753Z,2.70
2023-01-29T22:46:14.843Z,3.50
2023-01-29T22:47:14.727Z,3.00
2023-01-29T22:48:14.741Z,2.50
2023-01-29T22:49:14.705Z,2.90
2023-01-29T22:50:14.954Z,3.20
2023-01-29T22:51:14.722Z,3.10
2023-01-29T22:52:14.703Z,3.10
2023-01-29T22:53:14.640Z,3.00
2023-01-29T22:54:16.074Z,3.00
2023-01-29T22:55:14.658Z,3.30
2023-01-29T22:56:14.694Z,3.50
2023-01-29T22:57:14.607Z,3.70
2023-01-29T22:58:14.632Z,3.30
2023-01-29T22:59:14.662Z,3.50
2023-01-29T23:00:14.652Z,3.40
2023-01-29T23:01:14.602Z,3.60
2023-01-29T23:02:14.560Z,4.00
2023-01-29T23:03:14.572Z,4.30
2023-01-29T23:04:14.616Z,4.10
2023-01-29T23:05:15.294Z,4.30
2023-01-29T23:06:15.555Z,4.30
2023-01-29T23:07:14.481Z,3.90
2023-01-29T23:08:15.146Z,4.30
2023-01-29T23:09:14.483Z,3.90
2023-01-29T23:10:14.676Z,4.10
2023-01-29T23:11:15.489Z,4.20
2023-01-29T23:12:14.455Z,3.80
2023-01-29T23:13:14.481Z,4.60
2023-01-29T23:14:14.431Z,4.10
2023-01-29T23:15:14.404Z,4.00
2023-01-29T23:16:14.466Z,4.10
2023-01-29T23:17:18.990Z,4.30
2023-01-29T23:18:15.849Z,3.90
2023-01-29T23:19:14.428Z,4.00
2023-01-29T23:20:14.403Z,4.40
2023-01-29T23:21:15.059Z,4.50
2023-01-29T23:22:14.596Z,4.30
2023-01-29T23:23:14.312Z,3.80
2023-01-29T23:24:14.313Z,4.50
2023-01-29T23:25:14.333Z,4.20
2023-01-29T23:26:14.339Z,4.10
2023-01-29T23:27:14.245Z,4.60
2023-01-29T23:28:14.289Z,4.40
2023-01-29T23:29:14.918Z,4.70
2023-01-29T23:30:15.032Z,4.60
2023-01-29T23:31:14.238Z,4.40
2023-01-29T23:32:14.869Z,4.70
2023-01-29T23:33:14.183Z,4.70
2023-01-29T23:34:14.291Z,4.50
2023-01-29T23:35:14.180Z,4.50
2023-01-29T23:36:14.213Z,4.30
2023-01-29T23:37:14.146Z,4.40
2023-01-29T23:38:14.150Z,4.80
2023-01-29T23:39:14.877Z,5.10
2023-01-29T23:40:14.383Z,4.80
2023-01-29T23:41:14.850Z,4.80
2023-01-29T23:42:16.832Z,4.40
2023-01-29T23:43:14.070Z,4.20
2023-01-29T23:44:14.109Z,4.20
2023-01-29T23:45:15.522Z,4.50
2023-01-29T23:46:14.157Z,4.30
2023-01-29T23:47:14.116Z,4.30
2023-01-29T23:48:15.537Z,4.30
2023-01-29T23:49:15.442Z,4.80
2023-01-29T23:50:14.251Z,4.40
2023-01-29T23:51:14.010Z,4.30
2023-01-29T23:52:15.680Z,4.20
2023-01-29T23:53:13.950Z,4.60
2023-01-29T23:54:14.889Z,4.50
2023-01-29T23:55:16.867Z,4.90
2023-01-29T23:56:15.949Z,4.50
2023-01-29T23:57:13.981Z,4.50
2023-01-29T23:58:16.775Z,5.10
2023-01-29T23:59:13.926Z,4.80
